KVCT/VCT METAR and TAF weather

Enter ICAO airport designator
Station Type Date Time Source
KVCT METAR 2019/10/18 10:51 UTC NOAA

KVCT 181051Z AUTO 00000KT 8SM CLR 13/12 A2987 RMK AO2 SLP111 T01330117


Station Type Date Time Source
KVCT Decoded METAR 2019/10/18 10:51 UTC NOAA

VICTORIA REGIONAL AIRPORT, TX, United States (KVCT) 28-52N 96-56W 31M
Oct 18, 2019 - 06:51 AM EDT / 2019.10.18 1051 UTC
Wind: Calm:0
Visibility: 8 mile(s):0
Sky conditions: clear
Temperature: 55.9 F (13.3 C)
Dew Point: 53.1 F (11.7 C)
Relative Humidity: 90%
Pressure (altimeter): 29.87 in. Hg (1011 hPa)
ob: KVCT 181051Z AUTO 00000KT 8SM CLR 13/12 A2987 RMK AO2 SLP111 T01330117
cycle: 11

Station Type Date Time Source
KVCT TAF 2019/10/18 06:30 UTC NOAA

TAF KVCT 180528Z 1806/1906 07004KT P6SM SKC
FM180900 06004KT P6SM SCT025
TEMPO 1811/1813 BKN025
FM181600 VRB03KT P6SM SCT035
FM182100 15007KT P6SM SCT050
FM190300 17004KT P6SM SCT025
TEMPO 1903/1906 BKN025

Example: see airport list